Time;durP1;ratioP1;P1;durP2;ratioP2;P2;SDS_P1;SDS_P2;PMS_P1;PMS_P2;Temp;Humidity;BMP_temperature;BMP_pressure;BME280_temperature;BME280_humidity;BME280_pressure;Samples;Min_cycle;Max_cycle;Signal;HPM_P1;HPM_P2
2022/02/09 00:07:22;;;;;;;9.30;4.90;;;9.70;99.90;;;;;;5039475;28;25087;-70
2022/02/09 00:09:48;;;;;;;9.20;4.95;;;9.70;99.90;;;;;;5032987;28;25158;-69
2022/02/09 00:15:34;;;;;;;9.63;5.72;;;9.70;99.90;;;;;;4952267;29;25064;-70
2022/02/09 00:37:15;;;;;;;8.07;5.90;;;9.60;99.90;;;;;;5020215;28;25115;-69
2022/02/09 00:58:37;;;;;;;8.90;5.65;;;9.60;99.90;;;;;;5013687;28;25075;-69
2022/02/09 01:40:10;;;;;;;10.45;7.38;;;9.50;99.90;;;;;;5028162;28;25150;-67
2022/02/09 01:56:32;;;;;;;10.13;8.10;;;9.40;99.90;;;;;;5009303;28;25051;-68
2022/02/09 01:58:58;;;;;;;9.60;8.57;;;9.50;99.90;;;;;;4992017;28;25112;-69
2022/02/09 02:01:24;;;;;;;9.35;8.00;;;9.50;99.90;;;;;;5009492;28;25079;-68
2022/02/09 02:03:49;;;;;;;10.30;8.93;;;9.50;99.90;;;;;;5008840;28;25094;-67
2022/02/09 02:06:18;;;;;;;10.57;9.40;;;9.50;99.90;;;;;;5015998;28;25097;-68
2022/02/09 02:08:45;;;;;;;12.75;10.05;;;9.40;99.90;;;;;;5011107;28;25058;-68
2022/02/09 02:11:21;;;;;;;14.20;10.88;;;9.50;99.90;;;;;;5029403;28;25089;-68
2022/02/09 02:16:22;;;;;;;15.05;11.10;;;9.50;99.90;;;;;;5028268;28;25053;-69
2022/02/09 02:19:11;;;;;;;12.75;10.93;;;9.40;99.90;;;;;;5010585;28;25099;-68
2022/02/09 02:22:30;;;;;;;16.98;11.75;;;9.40;99.90;;;;;;5027815;28;25067;-68
2022/02/09 02:25:10;;;;;;;14.60;12.27;;;9.40;99.90;;;;;;5023045;28;25065;-68
2022/02/09 02:33:15;;;;;;;13.93;11.50;;;9.40;99.90;;;;;;5027452;28;25067;-69
2022/02/09 02:36:07;;;;;;;12.20;10.95;;;9.40;99.90;;;;;;5009168;28;25149;-68
2022/02/09 02:38:57;;;;;;;15.98;12.00;;;9.40;99.90;;;;;;5007939;28;25082;-68
2022/02/09 03:08:53;;;;;;;8.65;7.75;;;9.20;99.90;;;;;;5041187;28;25106;-68
2022/02/09 03:11:37;;;;;;;9.43;7.85;;;9.20;99.90;;;;;;5037275;28;25071;-67
2022/02/09 03:14:13;;;;;;;9.45;8.30;;;9.10;99.90;;;;;;5016205;28;25110;-69
2022/02/09 03:17:03;;;;;;;9.93;7.88;;;9.10;99.90;;;;;;5036568;28;25081;-68
2022/02/09 03:24:35;;;;;;;9.65;8.27;;;9.00;99.90;;;;;;5037915;28;25053;-67
2022/02/09 03:51:54;;;;;;;13.60;11.23;;;9.00;99.90;;;;;;5026508;28;25062;-67
2022/02/09 03:56:41;;;;;;;14.18;11.82;;;8.90;99.90;;;;;;5007438;28;25072;-68
2022/02/09 03:59:07;;;;;;;13.23;11.82;;;8.90;99.90;;;;;;5007684;28;25132;-68
2022/02/09 04:01:36;;;;;;;13.48;11.93;;;9.00;99.90;;;;;;5010065;28;25074;-70
2022/02/09 04:04:02;;;;;;;12.75;11.52;;;9.00;99.90;;;;;;5025154;28;25098;-67
2022/02/09 04:06:33;;;;;;;14.68;13.07;;;9.00;99.90;;;;;;5026469;28;25109;-69
2022/02/09 04:09:01;;;;;;;14.57;11.00;;;9.00;99.90;;;;;;5026852;28;25059;-67
2022/02/09 04:11:32;;;;;;;13.40;11.60;;;8.90;99.90;;;;;;5025742;28;25125;-69
2022/02/09 04:14:07;;;;;;;15.18;11.27;;;8.90;99.90;;;;;;5025372;28;25069;-68
2022/02/09 04:38:43;;;;;;;12.45;10.77;;;8.70;99.90;;;;;;5020837;28;25132;-70
2022/02/09 04:54:27;;;;;;;11.73;9.52;;;8.80;99.90;;;;;;5014491;28;25073;-69
2022/02/09 04:56:59;;;;;;;11.38;9.48;;;8.70;99.90;;;;;;5013655;28;25076;-69
2022/02/09 04:59:38;;;;;;;13.27;9.20;;;8.80;99.90;;;;;;5012828;28;25095;-69
2022/02/09 05:02:36;;;;;;;9.43;8.25;;;8.80;99.90;;;;;;5014164;28;25122;-69
2022/02/09 05:26:37;;;;;;;10.68;5.75;;;8.70;99.90;;;;;;5026255;28;25077;-66
2022/02/09 05:29:03;;;;;;;6.18;5.57;;;8.70;99.90;;;;;;5011163;28;25065;-67
2022/02/09 05:31:29;;;;;;;8.55;5.70;;;8.70;99.90;;;;;;5009984;28;25139;-68
2022/02/09 05:33:54;;;;;;;6.07;5.47;;;8.70;99.90;;;;;;5022912;28;25258;-68
2022/02/09 05:36:20;;;;;;;7.82;5.72;;;8.70;99.90;;;;;;5007387;28;25119;-68
2022/02/09 05:38:45;;;;;;;7.75;6.20;;;8.70;99.90;;;;;;5012607;28;25114;-68
2022/02/09 05:41:11;;;;;;;9.05;6.25;;;8.80;99.90;;;;;;5013072;28;25154;-67
2022/02/09 05:43:37;;;;;;;9.90;6.22;;;8.80;99.90;;;;;;5022122;28;25152;-67
2022/02/09 05:49:19;;;;;;;6.53;5.13;;;8.80;99.90;;;;;;5023400;28;25068;-69
2022/02/09 05:52:17;;;;;;;7.85;5.45;;;8.80;99.90;;;;;;5021244;28;25145;-69
2022/02/09 05:59:29;;;;;;;6.47;5.78;;;8.80;99.90;;;;;;4983297;28;25108;-67
2022/02/09 06:01:56;;;;;;;6.00;5.40;;;8.80;99.90;;;;;;5021884;28;25070;-66
2022/02/09 06:04:22;;;;;;;6.47;5.03;;;8.70;99.90;;;;;;5024757;28;25103;-67
2022/02/09 06:06:47;;;;;;;6.38;4.90;;;8.70;99.90;;;;;;5026744;28;25108;-67
2022/02/09 06:09:13;;;;;;;6.32;5.32;;;8.70;99.90;;;;;;5027243;28;25109;-65
2022/02/09 06:14:56;;;;;;;5.57;4.55;;;8.70;99.90;;;;;;4976830;28;25136;-67
2022/02/09 06:20:06;;;;;;;8.30;5.65;;;8.70;99.90;;;;;;5023160;28;25122;-67
2022/02/09 06:22:32;;;;;;;8.38;5.88;;;8.70;99.90;;;;;;5020385;28;25166;-67
2022/02/09 06:24:58;;;;;;;7.30;5.40;;;8.70;99.90;;;;;;5025623;28;25095;-68
2022/02/09 06:27:23;;;;;;;7.95;7.13;;;8.70;99.90;;;;;;5026250;28;25119;-69
2022/02/09 06:29:49;;;;;;;6.90;6.20;;;8.70;99.90;;;;;;5017446;28;25108;-66
2022/02/09 06:32:18;;;;;;;6.63;6.03;;;8.60;99.90;;;;;;5019282;28;25108;-65
2022/02/09 06:34:45;;;;;;;10.80;6.80;;;8.60;99.90;;;;;;5027961;28;25092;-67
2022/02/09 06:37:17;;;;;;;7.50;6.40;;;8.60;99.90;;;;;;5025332;28;25166;-67
2022/02/09 06:39:49;;;;;;;9.55;6.70;;;8.60;99.90;;;;;;5023604;28;25057;-66
2022/02/09 06:42:21;;;;;;;9.75;7.10;;;8.60;99.90;;;;;;5028335;28;25144;-69
2022/02/09 06:44:47;;;;;;;7.88;7.05;;;8.70;99.90;;;;;;5022815;28;25058;-67
2022/02/09 06:47:13;;;;;;;8.32;7.38;;;8.70;99.90;;;;;;5027756;28;25111;-66
2022/02/09 06:49:41;;;;;;;13.40;6.93;;;8.70;99.90;;;;;;5026090;28;25073;-69
2022/02/09 06:52:07;;;;;;;8.52;7.50;;;8.60;99.90;;;;;;5028921;28;25061;-66
2022/02/09 06:54:43;;;;;;;10.65;8.18;;;8.60;99.90;;;;;;5030064;28;25104;-66
2022/02/09 06:57:24;;;;;;;10.27;9.25;;;8.60;99.90;;;;;;5028774;28;25139;-67
2022/02/09 06:59:50;;;;;;;13.52;10.30;;;8.60;99.90;;;;;;5010061;28;25052;-67
2022/02/09 07:02:15;;;;;;;13.52;10.73;;;8.50;99.90;;;;;;5009062;28;25100;-67
2022/02/09 07:04:41;;;;;;;15.02;11.32;;;8.50;99.90;;;;;;5009512;28;25068;-66
2022/02/09 07:07:07;;;;;;;15.82;11.80;;;8.50;99.90;;;;;;5011295;28;25134;-69
2022/02/09 07:09:34;;;;;;;14.90;13.30;;;8.50;99.90;;;;;;4994653;28;25132;-69
2022/02/09 07:11:59;;;;;;;17.15;13.38;;;8.50;99.90;;;;;;4994674;28;25050;-68
2022/02/09 07:14:28;;;;;;;16.63;13.60;;;8.50;99.90;;;;;;5011408;28;25069;-68
2022/02/09 07:16:56;;;;;;;18.65;15.88;;;8.50;99.90;;;;;;4993338;28;25136;-67
2022/02/09 07:19:21;;;;;;;23.35;18.00;;;8.50;99.90;;;;;;5007478;28;25074;-69
2022/02/09 07:21:48;;;;;;;20.45;16.85;;;8.50;99.90;;;;;;5006866;28;25161;-69
2022/02/09 07:24:17;;;;;;;20.58;17.73;;;8.50;99.90;;;;;;5006866;28;25086;-70
2022/02/09 07:29:13;;;;;;;23.38;18.48;;;8.50;99.90;;;;;;5012593;28;25084;-70
2022/02/09 07:31:38;;;;;;;22.75;18.75;;;8.40;99.90;;;;;;4993223;28;25101;-69
2022/02/09 07:34:04;;;;;;;22.38;19.95;;;8.40;99.90;;;;;;5014482;28;25079;-66
2022/02/09 07:36:35;;;;;;;24.27;19.60;;;8.50;99.90;;;;;;5028891;28;25079;-70
2022/02/09 07:39:04;;;;;;;27.08;20.00;;;8.40;99.90;;;;;;5027287;28;25074;-68
2022/02/09 07:41:30;;;;;;;24.02;19.83;;;8.40;99.90;;;;;;5008810;28;25220;-67
2022/02/09 07:46:41;;;;;;;24.63;19.35;;;8.50;99.90;;;;;;5027155;28;25081;-70
2022/02/09 07:49:25;;;;;;;25.67;19.77;;;8.50;99.90;;;;;;5027984;28;25141;-70
2022/02/09 07:52:07;;;;;;;24.25;19.52;;;8.50;99.90;;;;;;5027467;28;25061;-69
2022/02/09 07:54:33;;;;;;;27.33;19.67;;;8.50;99.90;;;;;;5008637;28;25073;-68
2022/02/09 07:56:58;;;;;;;25.13;18.77;;;8.50;99.90;;;;;;5027096;28;25127;-69
2022/02/09 07:59:24;;;;;;;22.90;18.38;;;8.50;99.90;;;;;;5027574;28;25157;-69
2022/02/09 08:01:51;;;;;;;23.80;18.17;;;8.40;99.90;;;;;;5030374;28;25051;-68
2022/02/09 08:04:17;;;;;;;21.88;16.67;;;8.50;99.90;;;;;;5031905;28;25093;-68
2022/02/09 08:06:44;;;;;;;21.63;18.10;;;8.50;99.90;;;;;;5032231;28;25059;-67
2022/02/09 08:09:26;;;;;;;21.05;17.15;;;8.50;99.90;;;;;;5031170;28;25069;-68
2022/02/09 08:28:34;;;;;;;23.03;17.27;;;8.50;99.90;;;;;;5030451;28;25070;-69
2022/02/09 08:33:55;;;;;;;25.50;17.77;;;8.60;99.90;;;;;;4958271;28;25073;-69
2022/02/09 08:36:21;;;;;;;21.80;17.30;;;8.60;99.90;;;;;;5030758;28;25133;-71
2022/02/09 08:38:46;;;;;;;24.30;18.50;;;8.60;99.90;;;;;;5029747;28;25089;-70
2022/02/09 08:41:12;;;;;;;23.75;17.27;;;8.60;99.90;;;;;;5030127;28;25108;-72
2022/02/09 08:43:38;;;;;;;22.67;17.30;;;8.60;99.90;;;;;;5031115;28;25059;-69
2022/02/09 08:46:04;;;;;;;21.27;17.25;;;8.60;99.90;;;;;;5029198;28;25050;-69
2022/02/09 08:48:29;;;;;;;23.02;17.20;;;8.60;99.90;;;;;;5030128;28;25072;-69
2022/02/09 08:50:55;;;;;;;23.83;16.92;;;8.60;99.90;;;;;;5030128;28;25069;-70
2022/02/09 08:53:21;;;;;;;22.05;16.15;;;8.60;99.90;;;;;;5013778;28;25056;-70
2022/02/09 08:55:47;;;;;;;21.35;16.73;;;8.70;99.90;;;;;;5013012;28;25068;-70
2022/02/09 08:58:15;;;;;;;20.73;15.90;;;8.70;99.90;;;;;;5030456;28;25068;-69
2022/02/09 09:00:42;;;;;;;20.40;15.68;;;8.70;99.90;;;;;;5029837;28;25078;-70
2022/02/09 09:05:44;;;;;;;22.65;16.10;;;8.80;99.90;;;;;;5029887;28;25094;-68
2022/02/09 10:02:57;;;;;;;23.30;18.08;;;9.10;99.90;;;;;;5029732;28;25145;-69
2022/02/09 10:31:42;;;;;;;18.52;15.50;;;9.30;99.90;;;;;;5029557;28;24106;-67
2022/02/09 10:34:16;;;;;;;21.55;16.10;;;9.30;99.90;;;;;;5013056;28;25184;-68
2022/02/09 10:36:48;;;;;;;19.75;15.10;;;9.40;99.90;;;;;;5027273;28;25081;-70
2022/02/09 10:39:18;;;;;;;23.95;15.18;;;9.40;99.90;;;;;;5010131;28;25077;-69
2022/02/09 10:41:58;;;;;;;22.80;14.77;;;9.40;99.90;;;;;;5028437;28;25131;-70
2022/02/09 10:44:24;;;;;;;18.83;14.90;;;9.40;99.90;;;;;;5028072;28;25064;-67
2022/02/09 10:46:59;;;;;;;18.45;14.00;;;9.40;99.90;;;;;;5027212;28;25050;-68
2022/02/09 10:49:29;;;;;;;24.67;14.52;;;9.40;99.90;;;;;;5027886;28;25050;-68
2022/02/09 10:54:25;;;;;;;18.65;13.88;;;9.50;99.90;;;;;;5028365;28;25087;-67
2022/02/09 10:56:59;;;;;;;17.90;13.20;;;9.50;99.90;;;;;;5028086;28;25153;-70
2022/02/09 10:59:34;;;;;;;19.23;14.25;;;9.50;99.90;;;;;;5028330;28;25084;-70
2022/02/09 11:02:01;;;;;;;18.50;15.82;;;9.50;99.90;;;;;;5028460;28;25145;-68
2022/02/09 11:04:29;;;;;;;20.17;15.65;;;9.50;99.90;;;;;;5010810;28;25168;-69
2022/02/09 11:06:55;;;;;;;19.98;16.95;;;9.50;99.90;;;;;;5010844;28;25064;-69
2022/02/09 11:09:22;;;;;;;21.08;15.25;;;9.50;99.90;;;;;;5028294;28;25068;-68
2022/02/09 11:11:47;;;;;;;22.73;16.17;;;9.50;99.90;;;;;;5027713;28;25105;-70
2022/02/09 11:14:25;;;;;;;17.27;15.25;;;9.60;99.90;;;;;;5028127;28;25111;-69
2022/02/09 11:16:59;;;;;;;19.27;15.55;;;9.50;99.90;;;;;;5028858;28;25112;-66
2022/02/09 11:19:36;;;;;;;23.08;16.30;;;9.60;99.90;;;;;;5027897;28;25152;-72
2022/02/09 11:22:10;;;;;;;18.65;16.10;;;9.60;99.90;;;;;;5008338;28;25059;-70
2022/02/09 11:24:43;;;;;;;21.13;16.83;;;9.60;99.90;;;;;;5008137;28;25077;-71
2022/02/09 11:27:17;;;;;;;;;;;9.70;99.90;;;;;;5008191;28;25058;-68
2022/02/09 11:29:48;;;;;;;20.10;16.15;;;9.70;99.90;;;;;;5006983;28;25053;-71
2022/02/09 11:34:57;;;;;;;24.42;16.88;;;9.70;99.90;;;;;;5016151;28;25104;-69
2022/02/09 11:37:54;;;;;;;20.63;16.65;;;9.80;99.90;;;;;;5027602;28;25059;-68
2022/02/09 11:40:48;;;;;;;23.58;16.90;;;9.80;99.90;;;;;;5010540;28;25074;-66
2022/02/09 11:51:26;;;;;;;18.98;15.93;;;9.80;99.90;;;;;;5028669;28;25065;-66
2022/02/09 12:00:08;;;;;;;23.38;16.35;;;9.90;99.90;;;;;;5027768;28;25135;-67
2022/02/09 12:11:11;;;;;;;21.35;14.70;;;9.90;99.90;;;;;;4965672;28;25056;-67
2022/02/09 12:14:32;;;;;;;21.10;14.70;;;10.00;99.90;;;;;;5011723;28;25100;-66
2022/02/09 12:19:07;;;;;;;18.05;14.38;;;9.80;99.90;;;;;;5027338;28;25108;-66
2022/02/09 12:21:53;;;;;;;19.80;14.50;;;9.80;99.90;;;;;;4994154;28;25056;-69
2022/02/09 12:24:29;;;;;;;19.70;14.98;;;9.80;99.90;;;;;;5006964;28;25151;-71
2022/02/09 12:26:58;;;;;;;22.88;15.55;;;9.90;99.90;;;;;;5008202;28;24966;-67
2022/02/09 12:29:33;;;;;;;20.65;14.07;;;9.80;99.90;;;;;;4991663;28;25126;-67
2022/02/09 12:32:00;;;;;;;22.85;15.85;;;9.80;99.90;;;;;;5008495;28;25054;-67
2022/02/09 12:34:29;;;;;;;19.77;14.80;;;9.70;99.90;;;;;;5008394;28;25073;-69
2022/02/09 12:36:55;;;;;;;19.98;15.20;;;9.70;99.90;;;;;;5009245;28;25134;-68
2022/02/09 12:39:23;;;;;;;22.17;15.15;;;9.70;99.90;;;;;;5011529;28;25070;-66
2022/02/09 12:41:50;;;;;;;19.48;14.88;;;9.70;99.90;;;;;;5013849;28;25119;-67
2022/02/09 12:44:23;;;;;;;21.17;15.95;;;9.80;99.90;;;;;;5018805;28;25094;-66
2022/02/09 12:46:49;;;;;;;22.67;14.45;;;9.80;99.90;;;;;;5017331;28;25066;-69
2022/02/09 12:49:18;;;;;;;24.52;15.55;;;9.80;99.90;;;;;;5000021;28;25123;-69
2022/02/09 12:51:47;;;;;;;23.20;15.30;;;9.80;99.90;;;;;;5013271;28;25098;-74
2022/02/09 12:54:15;;;;;;;20.38;15.30;;;9.80;99.90;;;;;;4996209;28;25062;-70
2022/02/09 12:56:44;;;;;;;21.08;15.00;;;9.80;99.90;;;;;;5019769;28;25075;-73
2022/02/09 12:59:15;;;;;;;18.27;14.43;;;9.80;99.90;;;;;;5019069;28;25112;-69
2022/02/09 13:01:42;;;;;;;18.63;14.23;;;9.70;99.90;;;;;;5017159;28;25053;-74
2022/02/09 13:04:08;;;;;;;20.73;14.57;;;9.80;99.90;;;;;;5020818;28;25098;-70
2022/02/09 13:06:34;;;;;;;18.58;13.45;;;9.70;99.90;;;;;;4996453;28;25051;-71
2022/02/09 13:09:00;;;;;;;18.17;13.88;;;9.70;99.90;;;;;;5013411;28;25141;-70
2022/02/09 13:11:31;;;;;;;17.20;13.05;;;9.80;99.90;;;;;;5004943;28;25043;-71
2022/02/09 13:14:06;;;;;;;19.80;14.25;;;9.80;99.90;;;;;;5025367;28;25112;-71
2022/02/09 14:54:44;;;;;;;13.43;11.27;;;10.80;99.90;;;;;;4936700;28;25095;-68
2022/02/09 14:57:17;;;;;;;17.20;11.65;;;10.70;99.90;;;;;;5007033;28;25058;-69
2022/02/09 15:02:17;;;;;;;17.08;11.02;;;10.60;99.90;;;;;;5007405;28;25156;-69
2022/02/09 15:07:36;;;;;;;13.50;10.40;;;10.50;99.90;;;;;;5009000;28;25063;-70
2022/02/09 15:10:15;;;;;;;13.95;10.88;;;10.50;99.90;;;;;;4994710;28;25069;-70
2022/02/09 15:15:48;;;;;;;14.90;10.68;;;10.50;99.90;;;;;;5010209;28;25053;-70
2022/02/09 15:23:05;;;;;;;13.85;10.95;;;10.40;99.90;;;;;;5027240;28;25123;-70
2022/02/09 15:25:33;;;;;;;19.08;11.73;;;10.40;99.90;;;;;;5026911;28;25064;-71
2022/02/09 15:28:01;;;;;;;15.35;10.68;;;10.40;99.90;;;;;;5009184;28;25107;-69
2022/02/09 15:30:34;;;;;;;12.73;11.07;;;10.30;99.90;;;;;;5026773;28;25155;-69
2022/02/09 15:33:02;;;;;;;18.90;12.02;;;10.40;99.90;;;;;;5019670;28;25066;-69
2022/02/09 15:35:38;;;;;;;14.70;10.38;;;10.40;99.90;;;;;;5020195;28;25130;-68
2022/02/09 16:33:09;;;;;;;16.58;9.57;;;10.40;99.90;;;;;;5009759;28;25085;-70
2022/02/09 16:44:39;;;;;;;16.73;10.82;;;10.50;99.90;;;;;;5030420;28;25122;-69
2022/02/09 16:49:56;;;;;;;13.02;10.30;;;10.40;99.90;;;;;;5029065;28;25066;-70
2022/02/09 16:52:28;;;;;;;14.82;9.90;;;10.40;99.90;;;;;;5029057;28;25091;-69
2022/02/09 17:15:26;;;;;;;17.30;9.63;;;10.30;99.90;;;;;;5017556;28;25053;-69
2022/02/09 17:19:24;;;;;;;14.85;9.40;;;10.40;99.90;;;;;;5026297;28;25156;-69
2022/02/09 17:21:50;;;;;;;15.90;8.52;;;10.40;99.90;;;;;;5025347;28;25095;-69
2022/02/09 17:24:15;;;;;;;18.38;8.70;;;10.40;99.90;;;;;;5036202;28;25055;-68
2022/02/09 17:26:41;;;;;;;12.68;7.40;;;10.30;99.90;;;;;;5042322;28;25146;-69
2022/02/09 17:29:07;;;;;;;11.23;6.55;;;10.30;99.90;;;;;;5024864;28;25026;-68
2022/02/09 17:31:41;;;;;;;17.27;7.93;;;10.40;99.90;;;;;;5027548;28;25101;-68
2022/02/09 17:34:30;;;;;;;10.55;6.45;;;10.30;99.90;;;;;;5018184;28;25061;-69
2022/02/09 17:53:22;;;;;;;13.90;7.00;;;10.10;99.90;;;;;;5011085;28;25074;-69
2022/02/09 17:55:59;;;;;;;12.00;6.38;;;10.00;99.90;;;;;;5013537;28;25169;-68
2022/02/09 17:58:32;;;;;;;13.93;6.80;;;10.00;99.90;;;;;;5001537;28;25065;-68
2022/02/09 18:01:00;;;;;;;11.05;6.13;;;10.00;99.90;;;;;;5014584;28;25114;-70
2022/02/09 18:03:28;;;;;;;12.70;6.70;;;9.90;99.90;;;;;;5016393;28;25074;-68
2022/02/09 18:05:57;;;;;;;15.52;6.15;;;9.90;99.90;;;;;;5011623;28;25072;-70
2022/02/09 18:13:38;;;;;;;15.75;7.05;;;9.80;99.90;;;;;;5012348;28;25097;-68
2022/02/09 18:29:39;;;;;;;19.95;9.80;;;9.70;99.90;;;;;;5018849;28;25155;-68
2022/02/09 18:37:40;;;;;;;26.95;10.63;;;9.60;99.90;;;;;;5020599;28;25053;-70
2022/02/09 18:45:10;;;;;;;25.05;10.38;;;9.40;99.90;;;;;;5009967;28;25120;-69
2022/02/09 19:03:58;;;;;;;21.90;9.60;;;9.40;99.90;;;;;;5023272;28;25151;-69
2022/02/09 19:06:57;;;;;;;21.25;11.23;;;9.40;99.90;;;;;;5013826;28;25055;-69
2022/02/09 19:17:49;;;;;;;20.48;9.98;;;9.40;99.90;;;;;;5038171;28;25143;-70
2022/02/09 19:20:54;;;;;;;18.58;9.98;;;9.30;99.90;;;;;;5033772;28;25103;-68
2022/02/09 19:26:32;;;;;;;14.70;8.68;;;9.40;99.90;;;;;;5019925;28;25082;-71
2022/02/09 19:31:46;;;;;;;18.92;8.77;;;9.40;99.90;;;;;;4936753;28;25067;-71
2022/02/09 19:45:51;;;;;;;29.33;15.73;;;9.60;99.90;;;;;;4944583;28;25133;-69
2022/02/09 19:48:13;;;;;;;27.35;16.42;;;9.60;99.90;;;;;;5017430;28;25065;-70
2022/02/09 19:53:26;;;;;;;31.92;18.90;;;9.50;99.90;;;;;;5028593;28;25046;-65
2022/02/09 19:55:57;;;;;;;38.58;22.73;;;9.60;99.90;;;;;;5003427;28;25068;-74
2022/02/09 19:58:30;;;;;;;46.28;24.65;;;9.60;99.90;;;;;;5008220;28;25150;-69
2022/02/09 20:00:58;;;;;;;46.72;24.73;;;9.60;99.90;;;;;;5009127;28;25091;-69
2022/02/09 20:03:23;;;;;;;44.17;22.40;;;9.40;99.90;;;;;;5024477;28;25100;-69
2022/02/09 20:05:49;;;;;;;40.72;21.58;;;9.40;99.90;;;;;;5046324;28;25165;-73
2022/02/09 20:08:15;;;;;;;45.33;22.98;;;9.50;99.90;;;;;;5012101;28;25073;-69
2022/02/09 20:10:40;;;;;;;43.50;22.02;;;9.40;99.90;;;;;;5032058;28;25134;-69
2022/02/09 20:13:06;;;;;;;46.15;21.95;;;9.40;99.90;;;;;;5023844;28;25141;-69
2022/02/09 20:15:31;;;;;;;40.90;21.25;;;9.40;99.90;;;;;;5024064;28;25064;-69
2022/02/09 20:17:57;;;;;;;41.53;20.95;;;9.40;99.90;;;;;;5023859;28;25137;-69
2022/02/09 20:20:26;;;;;;;41.42;22.83;;;9.40;99.90;;;;;;5020157;28;25017;-70
2022/02/09 20:22:53;;;;;;;42.55;22.92;;;9.50;99.90;;;;;;5026685;28;25154;-69
2022/02/09 20:25:20;;;;;;;40.10;22.15;;;9.60;99.90;;;;;;5004807;28;25056;-67
2022/02/09 20:27:49;;;;;;;39.13;21.67;;;9.60;99.90;;;;;;5018930;28;25065;-65
2022/02/09 20:30:18;;;;;;;36.67;21.88;;;9.70;99.90;;;;;;5024015;28;25085;-67
2022/02/09 20:32:55;;;;;;;42.90;23.50;;;9.70;99.90;;;;;;5021475;28;25127;-65
2022/02/09 20:35:22;;;;;;;40.65;23.02;;;9.70;99.90;;;;;;5020250;28;25156;-66
2022/02/09 20:37:51;;;;;;;47.55;24.15;;;9.60;99.90;;;;;;5028925;28;25138;-65
2022/02/09 20:40:22;;;;;;;38.92;22.73;;;9.70;99.90;;;;;;4999747;28;25064;-65
2022/02/09 20:43:00;;;;;;;38.45;22.75;;;9.80;99.90;;;;;;5018548;28;25066;-67
2022/02/09 20:46:09;;;;;;;42.20;23.90;;;9.80;99.90;;;;;;5021857;28;25057;-69
2022/02/09 20:48:17;;;;;;;38.97;20.80;;;9.80;99.90;;;;;;5008962;28;25102;-68
2022/02/09 20:50:44;;;;;;;48.85;23.90;;;9.80;99.90;;;;;;5024302;28;25109;-68
2022/02/09 20:53:11;;;;;;;48.83;25.10;;;9.80;99.90;;;;;;5025222;28;25080;-68
2022/02/09 20:55:37;;;;;;;42.95;25.13;;;9.70;99.90;;;;;;5024906;28;25150;-69
2022/02/09 20:58:03;;;;;;;48.22;25.25;;;9.70;99.90;;;;;;5030606;28;25058;-69
2022/02/09 21:57:57;;;;;;;47.25;26.63;;;9.50;99.90;;;;;;5025234;28;25105;-69
2022/02/09 22:27:26;;;;;;;34.85;25.80;;;9.60;99.90;;;;;;5026107;28;25104;-68
2022/02/09 22:30:30;;;;;;;35.50;25.77;;;9.60;99.90;;;;;;5008718;28;25066;-67
2022/02/09 22:46:56;;;;;;;31.15;22.92;;;9.50;99.90;;;;;;5010777;28;25099;-65
2022/02/09 22:56:54;;;;;;;29.33;19.83;;;9.50;99.90;;;;;;5018574;28;25065;-68
2022/02/09 22:59:30;;;;;;;27.88;21.10;;;9.50;99.90;;;;;;5016565;28;25139;-66
2022/02/09 23:02:01;;;;;;;30.90;22.02;;;9.60;99.90;;;;;;5007856;28;25075;-67
2022/02/09 23:04:39;;;;;;;27.05;21.23;;;9.60;99.90;;;;;;5023863;28;25058;-67
2022/02/09 23:12:52;;;;;;;30.80;21.70;;;9.50;99.90;;;;;;4977829;28;25138;-66
2022/02/09 23:21:31;;;;;;;31.63;22.80;;;9.40;99.90;;;;;;5021101;28;25099;-68
2022/02/09 23:53:05;;;;;;;34.58;24.00;;;9.50;99.90;;;;;;5008592;28;25080;-67
